createdAt,value
2023-04-02T00:01:50.745Z,8.98
2023-04-02T00:07:15.546Z,9.73
2023-04-02T00:12:20.047Z,10.48
2023-04-02T00:17:25.129Z,10.67
2023-04-02T00:22:31.547Z,10.95
2023-04-02T00:27:34.160Z,10.07
2023-04-02T00:32:37.521Z,11.02
2023-04-02T00:37:42.424Z,10.90
2023-04-02T00:42:46.768Z,11.67
2023-04-02T00:47:49.580Z,11.85
2023-04-02T00:52:54.182Z,12.32
2023-04-02T00:57:59.835Z,11.77
2023-04-02T01:03:37.262Z,11.90
2023-04-02T01:09:04.941Z,12.30
2023-04-02T01:14:37.742Z,12.60
2023-04-02T01:19:46.727Z,12.40
2023-04-02T01:24:49.981Z,12.05
2023-04-02T01:29:57.833Z,13.68
2023-04-02T01:35:01.578Z,12.53
2023-04-02T01:40:36.154Z,13.10
2023-04-02T01:45:39.347Z,12.35
2023-04-02T01:50:45.639Z,12.85
2023-04-02T01:55:53.431Z,13.82
2023-04-02T02:01:12.934Z,13.60
2023-04-02T02:06:18.344Z,15.02
2023-04-02T02:11:24.546Z,13.90
2023-04-02T02:16:29.916Z,11.45
2023-04-02T02:21:42.181Z,12.43
2023-04-02T02:26:48.117Z,12.53
2023-04-02T02:31:55.116Z,12.80
2023-04-02T02:37:23.919Z,10.45
2023-04-02T02:42:40.094Z,10.40
2023-04-02T02:47:45.806Z,9.50
2023-04-02T02:52:58.301Z,11.20
2023-04-02T02:58:09.061Z,10.13
2023-04-02T03:03:26.818Z,10.13
2023-04-02T03:09:03.260Z,10.52
2023-04-02T03:14:37.805Z,8.15
2023-04-02T03:19:43.706Z,7.30
2023-04-02T03:25:01.987Z,6.07
2023-04-02T03:30:38.176Z,6.05
2023-04-02T03:36:03.169Z,6.05
2023-04-02T03:41:29.882Z,6.47
2023-04-02T03:46:48.801Z,6.30
2023-04-02T03:52:18.085Z,6.10
2023-04-02T03:57:53.070Z,5.72
2023-04-02T04:03:11.701Z,4.90
2023-04-02T04:08:18.922Z,6.00
2023-04-02T04:13:31.435Z,6.00
2023-04-02T04:18:57.305Z,5.45
2023-04-02T04:24:16.078Z,5.90
2023-04-02T04:29:34.745Z,6.38
2023-04-02T04:34:47.058Z,5.57
2023-04-02T04:39:58.253Z,5.53
2023-04-02T04:45:12.766Z,6.00
2023-04-02T04:50:21.475Z,6.20
2023-04-02T04:55:35.692Z,7.15
2023-04-02T05:01:04.037Z,5.95
2023-04-02T05:06:23.707Z,5.53
2023-04-02T05:11:41.543Z,5.90
2023-04-02T05:17:03.734Z,5.45
2023-04-02T05:22:22.486Z,5.82
2023-04-02T05:28:05.702Z,5.72
2023-04-02T05:33:27.287Z,6.70
2023-04-02T05:38:44.050Z,5.20
2023-04-02T05:43:49.254Z,5.43
2023-04-02T05:48:57.096Z,5.53
2023-04-02T05:54:05.429Z,5.85
2023-04-02T05:59:41.887Z,6.20
2023-04-02T06:05:06.845Z,6.38
2023-04-02T06:10:54.594Z,6.00
2023-04-02T06:16:01.360Z,6.32
2023-04-02T06:21:09.355Z,5.60
2023-04-02T06:26:32.309Z,5.27
2023-04-02T06:31:49.531Z,5.50
2023-04-02T06:37:00.309Z,5.30
2023-04-02T06:42:13.359Z,4.97
2023-04-02T06:47:42.862Z,5.47
2023-04-02T06:53:05.471Z,5.40
2023-04-02T06:58:10.910Z,5.65
2023-04-02T07:03:25.254Z,5.68
2023-04-02T07:08:29.569Z,4.15
2023-04-02T07:13:32.421Z,6.03
2023-04-02T07:18:35.560Z,5.70
2023-04-02T07:23:42.198Z,5.60
2023-04-02T07:28:45.248Z,5.20
2023-04-02T07:33:48.486Z,5.80
2023-04-02T07:38:51.412Z,5.05
2023-04-02T07:43:54.508Z,5.13
2023-04-02T07:48:57.186Z,3.83
2023-04-02T07:54:02.099Z,3.75
2023-04-02T07:59:05.726Z,3.88
2023-04-02T08:04:18.529Z,4.25
2023-04-02T08:09:21.245Z,4.23
2023-04-02T08:14:24.238Z,4.20
2023-04-02T08:19:26.997Z,3.90
2023-04-02T08:24:29.603Z,3.90
2023-04-02T08:29:35.106Z,4.03
2023-04-02T08:34:37.823Z,5.13
2023-04-02T08:39:41.505Z,4.25
2023-04-02T08:44:56.342Z,7.82
2023-04-02T08:50:20.391Z,1.92
2023-04-02T08:55:40.085Z,1.13
2023-04-02T09:00:45.834Z,1.53
2023-04-02T09:05:51.475Z,1.15
2023-04-02T09:11:26.379Z,1.02
2023-04-02T09:16:41.536Z,1.42
2023-04-02T09:22:04.781Z,1.27
2023-04-02T09:27:27.593Z,1.50
2023-04-02T09:32:50.598Z,0.90
2023-04-02T09:38:08.424Z,1.20
2023-04-02T09:43:22.858Z,0.82
2023-04-02T09:48:35.599Z,0.80
2023-04-02T09:53:42.591Z,1.00
2023-04-02T09:58:47.076Z,0.82
2023-04-02T10:03:50.167Z,0.95
2023-04-02T10:08:52.931Z,1.58
2023-04-02T10:14:06.260Z,1.30
2023-04-02T10:19:33.067Z,1.80
2023-04-02T10:24:35.728Z,1.70
2023-04-02T10:29:47.121Z,1.90
2023-04-02T10:35:06.459Z,1.70
2023-04-02T10:40:20.044Z,2.65
2023-04-02T10:45:47.356Z,1.67
2023-04-02T10:51:00.826Z,1.73
2023-04-02T10:56:09.571Z,1.65
2023-04-02T11:01:20.058Z,1.45
2023-04-02T11:06:30.684Z,1.40
2023-04-02T11:11:40.408Z,1.30
2023-04-02T11:16:44.747Z,0.93
2023-04-02T11:22:18.045Z,0.82
2023-04-02T11:27:26.309Z,1.42
2023-04-02T11:32:40.244Z,1.63
2023-04-02T11:37:45.320Z,1.50
2023-04-02T11:42:49.545Z,1.48
2023-04-02T11:48:01.566Z,1.73
2023-04-02T11:53:19.902Z,2.17
2023-04-02T11:58:40.544Z,1.15
2023-04-02T12:04:13.675Z,1.60
2023-04-02T12:09:27.514Z,1.77
2023-04-02T12:14:48.759Z,1.67
2023-04-02T12:19:55.179Z,2.08
2023-04-02T12:25:27.122Z,2.47
2023-04-02T12:30:29.736Z,2.73
2023-04-02T12:35:36.784Z,3.22
2023-04-02T12:40:39.494Z,3.20
2023-04-02T12:45:43.097Z,2.13
2023-04-02T12:50:46.146Z,2.30
2023-04-02T12:55:51.101Z,3.90
2023-04-02T13:01:08.931Z,3.67
2023-04-02T13:06:23.310Z,4.20
2023-04-02T13:11:37.332Z,3.03
2023-04-02T13:16:41.030Z,3.33
2023-04-02T13:21:44.925Z,3.00
2023-04-02T13:26:49.944Z,3.80
2023-04-02T13:31:54.636Z,3.35
2023-04-02T13:36:58.618Z,3.33
2023-04-02T13:42:04.017Z,3.38
2023-04-02T13:47:06.738Z,3.80
2023-04-02T13:52:15.269Z,4.57
2023-04-02T13:57:18.396Z,3.60
2023-04-02T14:02:24.835Z,4.13
2023-04-02T14:07:47.237Z,3.25
2023-04-02T14:13:22.451Z,4.17
2023-04-02T14:18:58.120Z,3.75
2023-04-02T14:24:21.053Z,3.45
2023-04-02T14:29:29.576Z,20.13
2023-04-02T14:34:52.249Z,4.68
2023-04-02T14:40:04.286Z,3.43
2023-04-02T14:45:22.756Z,1.60
2023-04-02T14:50:33.318Z,2.30
2023-04-02T14:55:48.635Z,3.22
2023-04-02T15:01:03.397Z,2.53
2023-04-02T15:06:10.976Z,2.53
2023-04-02T15:11:29.286Z,2.85
2023-04-02T15:16:33.536Z,2.97
2023-04-02T15:21:58.934Z,3.05
2023-04-02T15:27:14.710Z,3.50
2023-04-02T15:32:31.575Z,2.33
2023-04-02T15:38:00.061Z,2.50
2023-04-02T15:43:06.435Z,3.03
2023-04-02T15:48:46.563Z,2.70
2023-04-02T15:54:12.025Z,3.80
2023-04-02T15:59:17.796Z,3.50
2023-04-02T16:04:29.839Z,3.53
2023-04-02T16:09:56.387Z,3.83
2023-04-02T16:15:36.565Z,3.92
2023-04-02T16:20:47.323Z,5.90
2023-04-02T16:26:01.376Z,4.53
2023-04-02T16:31:12.649Z,5.07
2023-04-02T16:36:35.269Z,4.30
2023-04-02T16:41:59.729Z,7.22
2023-04-02T16:47:15.298Z,5.40
2023-04-02T16:53:13.319Z,6.23
2023-04-02T16:58:31.190Z,7.15
2023-04-02T17:03:42.695Z,6.28
2023-04-02T17:09:01.621Z,6.57
2023-04-02T17:14:23.199Z,7.95
2023-04-02T17:19:27.883Z,7.53
2023-04-02T17:24:39.306Z,6.63
2023-04-02T17:29:45.678Z,5.30
2023-04-02T17:34:48.749Z,4.35
2023-04-02T17:40:19.621Z,5.75
2023-04-02T17:45:22.470Z,6.50
2023-04-02T17:50:39.241Z,4.85
2023-04-02T17:55:55.549Z,5.40
2023-04-02T18:01:17.620Z,5.00
2023-04-02T18:06:56.271Z,5.30
2023-04-02T18:12:07.099Z,5.27
2023-04-02T18:17:28.521Z,4.38
2023-04-02T18:22:45.205Z,4.88
2023-04-02T18:27:56.000Z,3.60
2023-04-02T18:33:18.792Z,5.20
2023-04-02T18:38:48.020Z,6.07
2023-04-02T18:44:24.475Z,6.25
2023-04-02T18:49:36.839Z,3.22
2023-04-02T18:55:05.516Z,5.00
2023-04-02T19:00:22.310Z,7.75
2023-04-02T19:05:44.945Z,6.43
2023-04-02T19:10:53.087Z,6.45
2023-04-02T19:16:25.399Z,4.97
2023-04-02T19:21:53.913Z,4.88
2023-04-02T19:27:38.457Z,4.50
2023-04-02T19:32:59.775Z,5.23
2023-04-02T19:38:16.476Z,4.05
2023-04-02T19:43:19.641Z,4.63
2023-04-02T19:48:26.899Z,4.78
2023-04-02T19:53:29.580Z,5.55
2023-04-02T19:58:36.501Z,4.43
2023-04-02T20:03:39.381Z,3.20
2023-04-02T20:08:42.198Z,3.85
2023-04-02T20:13:45.005Z,2.35
2023-04-02T20:18:47.772Z,4.07
2023-04-02T20:23:55.148Z,2.87
2023-04-02T20:28:58.291Z,6.40
2023-04-02T20:34:02.948Z,12.30
2023-04-02T20:39:08.472Z,6.75
2023-04-02T20:44:11.501Z,3.58
2023-04-02T20:49:14.365Z,3.60
2023-04-02T20:54:17.282Z,3.38
2023-04-02T20:59:19.964Z,8.52
2023-04-02T21:04:22.836Z,4.43
2023-04-02T21:09:25.560Z,9.07
2023-04-02T21:14:28.404Z,5.10
2023-04-02T21:19:32.967Z,2.88
2023-04-02T21:24:35.842Z,2.60
2023-04-02T21:29:38.783Z,2.15
2023-04-02T21:34:41.801Z,2.78
2023-04-02T21:39:44.745Z,2.43
2023-04-02T21:44:47.514Z,2.80
2023-04-02T21:49:50.384Z,2.25
2023-04-02T21:54:53.075Z,2.30
2023-04-02T21:59:57.224Z,2.50
2023-04-02T22:05:00.084Z,1.77
2023-04-02T22:10:03.197Z,1.27
2023-04-02T22:15:06.469Z,1.90
2023-04-02T22:20:09.888Z,1.83
2023-04-02T22:25:12.682Z,1.95
2023-04-02T22:30:15.604Z,1.90
2023-04-02T22:35:18.531Z,1.98
2023-04-02T22:40:21.465Z,2.28
2023-04-02T22:45:24.903Z,2.70
2023-04-02T22:50:28.143Z,2.17
2023-04-02T22:55:31.167Z,1.73
2023-04-02T23:00:34.101Z,2.50
2023-04-02T23:05:37.043Z,1.90
2023-04-02T23:10:39.702Z,1.65
2023-04-02T23:15:44.980Z,2.50
2023-04-02T23:20:47.623Z,1.73
2023-04-02T23:25:50.576Z,2.42
2023-04-02T23:30:53.721Z,1.20
2023-04-02T23:35:56.576Z,1.98
2023-04-02T23:40:59.478Z,2.00
2023-04-02T23:46:02.192Z,2.00
2023-04-02T23:51:05.029Z,1.40
2023-04-02T23:56:07.823Z,1.40
